createdAt,value
2023-03-16T00:00:47.165Z,3.30
2023-03-16T00:01:47.188Z,3.20
2023-03-16T00:02:47.159Z,3.20
2023-03-16T00:03:47.081Z,3.20
2023-03-16T00:04:47.055Z,3.80
2023-03-16T00:05:47.041Z,3.20
2023-03-16T00:06:46.989Z,3.10
2023-03-16T00:07:46.969Z,2.90
2023-03-16T00:08:46.933Z,3.20
2023-03-16T00:09:46.908Z,3.70
2023-03-16T00:10:46.888Z,3.30
2023-03-16T00:11:46.844Z,3.10
2023-03-16T00:12:46.813Z,3.40
2023-03-16T00:13:46.789Z,3.10
2023-03-16T00:14:46.760Z,3.40
2023-03-16T00:15:46.721Z,3.60
2023-03-16T00:16:46.721Z,3.20
2023-03-16T00:17:46.661Z,3.40
2023-03-16T00:18:46.636Z,2.90
2023-03-16T00:19:46.610Z,3.20
2023-03-16T00:20:46.572Z,3.40
2023-03-16T00:21:46.568Z,3.50
2023-03-16T00:22:46.521Z,3.20
2023-03-16T00:23:46.487Z,3.30
2023-03-16T00:24:46.452Z,3.40
2023-03-16T00:25:46.422Z,3.10
2023-03-16T00:26:46.390Z,3.40
2023-03-16T00:27:46.366Z,3.20
2023-03-16T00:28:46.333Z,3.60
2023-03-16T00:29:46.302Z,3.60
2023-03-16T00:30:46.272Z,3.60
2023-03-16T00:31:46.287Z,3.60
2023-03-16T00:32:46.277Z,3.80
2023-03-16T00:33:46.179Z,3.60
2023-03-16T00:34:46.148Z,3.50
2023-03-16T00:35:46.152Z,3.70
2023-03-16T00:36:46.092Z,3.30
2023-03-16T00:37:46.236Z,3.60
2023-03-16T00:38:46.027Z,3.70
2023-03-16T00:39:46.007Z,3.30
2023-03-16T00:40:45.966Z,4.10
2023-03-16T00:41:45.936Z,4.00
2023-03-16T00:42:45.905Z,3.60
2023-03-16T00:43:45.876Z,3.60
2023-03-16T00:44:45.846Z,4.00
2023-03-16T00:45:45.854Z,3.60
2023-03-16T00:46:45.787Z,4.10
2023-03-16T00:47:45.759Z,3.80
2023-03-16T00:48:45.725Z,3.70
2023-03-16T00:49:45.700Z,3.80
2023-03-16T00:50:45.668Z,3.70
2023-03-16T00:51:45.634Z,3.80
2023-03-16T00:52:45.605Z,3.80
2023-03-16T00:53:45.604Z,4.10
2023-03-16T00:54:45.544Z,4.00
2023-03-16T00:55:45.514Z,4.10
2023-03-16T00:56:45.483Z,4.10
2023-03-16T00:57:45.465Z,4.10
2023-03-16T00:58:45.424Z,4.10
2023-03-16T00:59:45.395Z,3.90
2023-03-16T01:00:45.364Z,3.70
2023-03-16T01:01:45.334Z,4.30
2023-03-16T01:02:45.428Z,4.00
2023-03-16T01:03:45.274Z,3.90
2023-03-16T01:04:45.248Z,3.80
2023-03-16T01:05:45.217Z,4.30
2023-03-16T01:06:45.188Z,3.90
2023-03-16T01:07:45.269Z,4.40
2023-03-16T01:08:45.143Z,4.30
2023-03-16T01:09:45.109Z,4.10
2023-03-16T01:10:45.069Z,3.90
2023-03-16T01:11:45.038Z,4.20
2023-03-16T01:12:45.024Z,4.00
2023-03-16T01:13:44.975Z,4.00
2023-03-16T01:14:44.945Z,3.90
2023-03-16T01:15:44.913Z,4.00
2023-03-16T01:16:44.911Z,3.90
2023-03-16T01:17:44.858Z,4.10
2023-03-16T01:18:44.827Z,4.00
2023-03-16T01:19:44.800Z,4.00
2023-03-16T01:20:44.768Z,3.90
2023-03-16T01:21:44.746Z,4.10
2023-03-16T01:22:44.705Z,4.20
2023-03-16T01:23:44.694Z,3.90
2023-03-16T01:24:44.645Z,4.20
2023-03-16T01:25:44.635Z,4.20
2023-03-16T01:26:44.587Z,3.90
2023-03-16T01:27:44.554Z,3.80
2023-03-16T01:28:44.529Z,3.90
2023-03-16T01:29:44.555Z,3.50
2023-03-16T01:30:44.511Z,4.20
2023-03-16T01:31:44.434Z,3.60
2023-03-16T01:32:44.473Z,3.60
2023-03-16T01:33:44.378Z,3.80
2023-03-16T01:34:44.347Z,3.40
2023-03-16T01:35:44.330Z,4.30
2023-03-16T01:36:44.290Z,3.90
2023-03-16T01:37:44.273Z,3.90
2023-03-16T01:38:44.252Z,3.60
2023-03-16T01:39:44.191Z,3.80
2023-03-16T01:40:44.163Z,3.30
2023-03-16T01:41:44.153Z,4.10
2023-03-16T01:42:44.117Z,4.00
2023-03-16T01:43:44.069Z,3.90
2023-03-16T01:44:44.041Z,3.50
2023-03-16T01:45:44.010Z,3.60
2023-03-16T01:46:43.983Z,3.80
2023-03-16T01:47:43.963Z,3.50
2023-03-16T01:48:43.937Z,3.60
2023-03-16T01:49:43.888Z,3.90
2023-03-16T01:50:43.860Z,3.40
2023-03-16T01:51:43.829Z,3.70
2023-03-16T01:52:43.795Z,3.60
2023-03-16T01:53:43.767Z,3.90
2023-03-16T01:54:43.757Z,3.80
2023-03-16T01:55:43.706Z,3.80
2023-03-16T01:56:43.684Z,3.80
2023-03-16T01:57:43.665Z,3.80
2023-03-16T01:58:43.624Z,3.80
2023-03-16T01:59:43.611Z,4.00
2023-03-16T02:00:43.559Z,3.80
2023-03-16T02:01:43.579Z,3.40
2023-03-16T02:02:43.519Z,4.40
2023-03-16T02:03:43.472Z,4.00
2023-03-16T02:04:43.597Z,4.00
2023-03-16T02:05:43.413Z,3.60
2023-03-16T02:06:43.376Z,3.70
2023-03-16T02:07:43.341Z,3.90
2023-03-16T02:08:43.316Z,3.90
2023-03-16T02:09:43.281Z,3.70
2023-03-16T02:10:43.257Z,3.90
2023-03-16T02:11:43.228Z,3.50
2023-03-16T02:12:43.197Z,3.80
2023-03-16T02:13:43.185Z,4.10
2023-03-16T02:14:43.132Z,3.90
2023-03-16T02:15:43.193Z,3.60
2023-03-16T02:16:43.075Z,3.50
2023-03-16T02:17:43.041Z,4.50
2023-03-16T02:18:43.018Z,3.50
2023-03-16T02:19:42.980Z,3.40
2023-03-16T02:20:42.951Z,4.10
2023-03-16T02:21:42.924Z,3.80
2023-03-16T02:22:42.891Z,3.60
2023-03-16T02:23:42.860Z,3.70
2023-03-16T02:24:42.830Z,3.70
2023-03-16T02:25:42.796Z,3.80
2023-03-16T02:26:42.769Z,3.80
2023-03-16T02:27:42.739Z,3.90
2023-03-16T02:28:42.710Z,3.40
2023-03-16T02:29:42.706Z,3.60
2023-03-16T02:30:42.758Z,3.90
2023-03-16T02:31:42.623Z,3.80
2023-03-16T02:32:42.660Z,3.40
2023-03-16T02:33:42.565Z,4.00
2023-03-16T02:34:42.526Z,4.10
2023-03-16T02:35:42.581Z,3.70
2023-03-16T02:36:42.466Z,4.10
2023-03-16T02:37:42.438Z,3.60
2023-03-16T02:38:42.406Z,4.10
2023-03-16T02:39:42.391Z,3.80
2023-03-16T02:40:42.343Z,3.70
2023-03-16T02:41:42.329Z,3.90
2023-03-16T02:42:42.283Z,3.70
2023-03-16T02:43:42.254Z,4.00
2023-03-16T02:44:42.231Z,3.90
2023-03-16T02:45:42.214Z,3.90
2023-03-16T02:46:42.205Z,3.90
2023-03-16T02:47:42.129Z,4.30
2023-03-16T02:48:42.099Z,4.10
2023-03-16T02:49:42.072Z,3.80
2023-03-16T02:50:42.042Z,3.70
2023-03-16T02:51:42.009Z,4.00
2023-03-16T02:52:41.978Z,3.80
2023-03-16T02:53:41.952Z,3.70
2023-03-16T02:54:41.920Z,4.00
2023-03-16T02:55:41.889Z,4.10
2023-03-16T02:56:41.858Z,3.80
2023-03-16T02:57:41.850Z,4.00
2023-03-16T02:58:41.797Z,4.10
2023-03-16T02:59:41.765Z,4.00
2023-03-16T03:00:41.741Z,4.10
2023-03-16T03:01:41.723Z,4.00
2023-03-16T03:02:41.674Z,3.80
2023-03-16T03:03:41.647Z,4.80
2023-03-16T03:04:41.614Z,4.00
2023-03-16T03:05:41.593Z,3.60
2023-03-16T03:06:41.557Z,4.40
2023-03-16T03:07:41.524Z,3.80
2023-03-16T03:08:41.493Z,4.20
2023-03-16T03:09:41.463Z,4.40
2023-03-16T03:10:41.432Z,3.90
2023-03-16T03:11:41.406Z,3.90
2023-03-16T03:12:41.373Z,4.00
2023-03-16T03:13:41.342Z,4.20
2023-03-16T03:14:41.312Z,4.10
2023-03-16T03:15:41.282Z,3.90
2023-03-16T03:16:41.298Z,4.20
2023-03-16T03:17:41.250Z,3.70
2023-03-16T03:18:41.195Z,4.10
2023-03-16T03:19:41.160Z,3.70
2023-03-16T03:20:41.130Z,4.10
2023-03-16T03:21:41.101Z,4.30
2023-03-16T03:22:41.076Z,3.80
2023-03-16T03:23:41.051Z,4.00
2023-03-16T03:24:41.013Z,4.10
2023-03-16T03:25:40.979Z,3.70
2023-03-16T03:26:40.948Z,4.50
2023-03-16T03:27:40.962Z,3.80
2023-03-16T03:28:40.887Z,4.00
2023-03-16T03:29:40.858Z,4.20
2023-03-16T03:30:40.827Z,3.60
2023-03-16T03:31:40.917Z,4.10
2023-03-16T03:32:40.852Z,4.10
2023-03-16T03:33:40.757Z,3.90
2023-03-16T03:34:40.706Z,4.00
2023-03-16T03:35:40.703Z,4.40
2023-03-16T03:36:40.645Z,3.80
2023-03-16T03:37:40.614Z,4.20
2023-03-16T03:38:40.584Z,4.20
2023-03-16T03:39:40.561Z,4.00
2023-03-16T03:40:40.523Z,3.90
2023-03-16T03:41:40.492Z,4.20
2023-03-16T03:42:40.464Z,4.20
2023-03-16T03:43:40.434Z,4.40
2023-03-16T03:44:40.406Z,3.90
2023-03-16T03:45:40.383Z,3.70
2023-03-16T03:46:40.466Z,4.00
2023-03-16T03:47:40.311Z,4.20
2023-03-16T03:48:40.287Z,3.90
2023-03-16T03:49:40.269Z,4.00
2023-03-16T03:50:40.220Z,4.20
2023-03-16T03:51:40.189Z,4.10
2023-03-16T03:52:40.158Z,3.90
2023-03-16T03:53:40.131Z,4.20
2023-03-16T03:54:40.107Z,4.00
2023-03-16T03:55:40.068Z,3.60
2023-03-16T03:56:40.039Z,4.40
2023-03-16T03:57:40.006Z,3.90
2023-03-16T03:58:39.982Z,4.00
2023-03-16T03:59:39.944Z,4.40
2023-03-16T04:00:39.938Z,3.90
2023-03-16T04:01:39.884Z,4.10
2023-03-16T04:02:39.997Z,3.90
2023-03-16T04:03:39.823Z,3.90
2023-03-16T04:04:39.795Z,3.80
2023-03-16T04:05:39.819Z,4.00
2023-03-16T04:06:39.744Z,4.20
2023-03-16T04:07:39.701Z,4.30
2023-03-16T04:08:39.672Z,3.80
2023-03-16T04:09:39.641Z,3.90
2023-03-16T04:10:39.621Z,4.00
2023-03-16T04:11:39.577Z,4.20
2023-03-16T04:12:39.552Z,3.80
2023-03-16T04:13:39.525Z,3.80
2023-03-16T04:14:39.498Z,4.00
2023-03-16T04:15:39.474Z,3.80
2023-03-16T04:16:39.496Z,3.80
2023-03-16T04:17:39.396Z,3.60
2023-03-16T04:18:39.370Z,3.40
2023-03-16T04:19:39.336Z,3.80
2023-03-16T04:20:39.307Z,3.70
2023-03-16T04:21:39.294Z,3.30
2023-03-16T04:22:39.257Z,3.60
2023-03-16T04:23:39.214Z,3.60
2023-03-16T04:24:39.189Z,3.60
2023-03-16T04:25:39.154Z,3.20
2023-03-16T04:26:39.126Z,3.20
2023-03-16T04:27:39.094Z,3.50
2023-03-16T04:28:39.062Z,3.50
2023-03-16T04:29:39.033Z,3.20
2023-03-16T04:30:39.052Z,3.50
2023-03-16T04:31:38.971Z,3.40
2023-03-16T04:32:38.976Z,3.50
2023-03-16T04:33:38.908Z,3.60
2023-03-16T04:34:38.885Z,3.20
2023-03-16T04:35:38.949Z,3.20
2023-03-16T04:36:38.820Z,3.10
2023-03-16T04:37:38.813Z,3.20
2023-03-16T04:38:38.759Z,3.40
2023-03-16T04:39:38.727Z,2.70
2023-03-16T04:40:38.704Z,2.90
2023-03-16T04:41:38.667Z,3.10
2023-03-16T04:42:38.643Z,3.30
2023-03-16T04:43:38.620Z,3.30
2023-03-16T04:44:38.577Z,3.30
2023-03-16T04:45:38.546Z,3.30
2023-03-16T04:46:38.673Z,2.90
2023-03-16T04:47:38.486Z,2.80
2023-03-16T04:48:38.458Z,3.10
2023-03-16T04:49:38.424Z,3.00
2023-03-16T04:50:38.397Z,3.00
2023-03-16T04:51:38.367Z,3.40
2023-03-16T04:52:38.336Z,3.40
2023-03-16T04:53:38.337Z,2.90
2023-03-16T04:54:38.268Z,3.50
2023-03-16T04:55:38.251Z,3.30
2023-03-16T04:56:38.210Z,2.70
2023-03-16T04:57:38.183Z,2.80
2023-03-16T04:58:38.153Z,2.90
2023-03-16T04:59:38.119Z,3.10
2023-03-16T05:00:38.092Z,2.90
2023-03-16T05:01:38.197Z,2.80
2023-03-16T05:02:38.037Z,3.20
2023-03-16T05:03:38.010Z,3.20
2023-03-16T05:04:37.969Z,2.80
2023-03-16T05:05:38.040Z,3.10
2023-03-16T05:06:37.908Z,2.80
2023-03-16T05:07:37.876Z,2.80
2023-03-16T05:08:37.850Z,2.90
2023-03-16T05:09:37.833Z,3.00
2023-03-16T05:10:37.786Z,2.80
2023-03-16T05:11:37.765Z,3.10
2023-03-16T05:12:37.719Z,3.10
2023-03-16T05:13:37.693Z,2.60
2023-03-16T05:14:37.660Z,3.00
2023-03-16T05:15:37.658Z,2.80
2023-03-16T05:16:37.598Z,2.90
2023-03-16T05:17:37.574Z,3.10
2023-03-16T05:18:37.547Z,2.90
2023-03-16T05:19:37.508Z,2.80
2023-03-16T05:20:37.478Z,2.80
2023-03-16T05:21:37.447Z,2.90
2023-03-16T05:22:37.446Z,2.70
2023-03-16T05:23:37.386Z,3.40
2023-03-16T05:24:37.359Z,2.90
2023-03-16T05:25:37.342Z,2.80
2023-03-16T05:26:37.299Z,2.90
2023-03-16T05:27:37.265Z,3.00
2023-03-16T05:28:37.244Z,2.90
2023-03-16T05:29:37.226Z,3.60
2023-03-16T05:30:37.179Z,3.10
2023-03-16T05:31:37.203Z,3.00
2023-03-16T05:32:37.215Z,3.20
2023-03-16T05:33:37.104Z,3.30
2023-03-16T05:34:37.060Z,2.70
2023-03-16T05:35:37.055Z,2.90
2023-03-16T05:36:37.010Z,3.00
2023-03-16T05:37:36.978Z,2.90
2023-03-16T05:38:36.945Z,3.00
2023-03-16T05:39:36.906Z,2.90
2023-03-16T05:40:36.906Z,2.90
2023-03-16T05:41:36.875Z,2.80
2023-03-16T05:42:36.818Z,2.70
2023-03-16T05:43:36.793Z,2.90
2023-03-16T05:44:36.753Z,2.90
2023-03-16T05:45:36.742Z,3.10
2023-03-16T05:46:36.731Z,2.80
2023-03-16T05:47:36.664Z,3.70
2023-03-16T05:48:36.636Z,3.20
2023-03-16T05:49:36.603Z,3.30
2023-03-16T05:50:36.571Z,3.20
2023-03-16T05:51:36.544Z,2.90
2023-03-16T05:52:36.513Z,3.30
2023-03-16T05:53:36.492Z,3.80
2023-03-16T05:54:36.465Z,3.20
2023-03-16T05:55:36.425Z,3.60
2023-03-16T05:56:36.393Z,3.70
2023-03-16T05:57:36.383Z,3.20
2023-03-16T05:58:36.333Z,3.10
2023-03-16T05:59:36.299Z,3.60
2023-03-16T06:00:36.269Z,4.00
2023-03-16T06:01:36.253Z,3.50
2023-03-16T06:02:36.291Z,3.40
2023-03-16T06:03:36.214Z,2.80
2023-03-16T06:04:36.153Z,3.50
2023-03-16T06:05:36.119Z,3.00
2023-03-16T06:06:36.088Z,3.00
2023-03-16T06:07:36.056Z,2.60
2023-03-16T06:08:36.029Z,2.90
2023-03-16T06:09:35.997Z,2.80
2023-03-16T06:10:35.967Z,2.70
2023-03-16T06:11:35.942Z,2.90
2023-03-16T06:12:35.910Z,3.10
2023-03-16T06:13:35.899Z,2.70
2023-03-16T06:14:35.846Z,2.80
2023-03-16T06:15:35.821Z,2.80
2023-03-16T06:16:35.836Z,3.10
2023-03-16T06:17:35.757Z,2.90
2023-03-16T06:18:35.729Z,3.00
2023-03-16T06:19:35.696Z,2.60
2023-03-16T06:20:35.701Z,2.90
2023-03-16T06:21:35.714Z,3.20
2023-03-16T06:22:35.606Z,2.80
2023-03-16T06:23:35.576Z,3.10
2023-03-16T06:24:35.548Z,2.60
2023-03-16T06:25:35.513Z,2.70
2023-03-16T06:26:35.524Z,2.70
2023-03-16T06:27:35.464Z,2.70
2023-03-16T06:28:35.431Z,3.30
2023-03-16T06:29:35.422Z,3.30
2023-03-16T06:30:35.371Z,3.60
2023-03-16T06:31:35.424Z,3.10
2023-03-16T06:32:35.378Z,3.20
2023-03-16T06:33:35.338Z,3.80
2023-03-16T06:34:37.613Z,2.90
2023-03-16T06:35:35.234Z,3.00
2023-03-16T06:36:35.188Z,2.60
2023-03-16T06:37:35.158Z,3.00
2023-03-16T06:38:35.126Z,3.00
2023-03-16T06:39:35.101Z,3.00
2023-03-16T06:40:35.067Z,3.10
2023-03-16T06:41:35.043Z,3.20
2023-03-16T06:42:35.009Z,2.80
2023-03-16T06:43:34.981Z,2.90
2023-03-16T06:44:34.950Z,2.70
2023-03-16T06:45:34.966Z,3.00
2023-03-16T06:46:34.895Z,3.30
2023-03-16T06:47:34.858Z,2.80
2023-03-16T06:48:34.854Z,2.90
2023-03-16T06:49:34.809Z,2.90
2023-03-16T06:50:34.767Z,3.30
2023-03-16T06:51:34.732Z,2.80
2023-03-16T06:52:34.702Z,2.90
2023-03-16T06:53:34.670Z,2.90
2023-03-16T06:54:34.646Z,3.20
2023-03-16T06:55:34.623Z,3.50
2023-03-16T06:56:34.585Z,3.00
2023-03-16T06:57:34.552Z,2.50
2023-03-16T06:58:34.525Z,3.00
2023-03-16T06:59:34.510Z,2.90
2023-03-16T07:00:34.466Z,3.00
2023-03-16T07:01:34.514Z,2.90
2023-03-16T07:02:34.403Z,3.10
2023-03-16T07:03:34.392Z,2.90
2023-03-16T07:04:34.387Z,3.10
2023-03-16T07:05:34.324Z,3.20
2023-03-16T07:06:34.284Z,3.00
2023-03-16T07:07:34.248Z,3.30
2023-03-16T07:08:34.222Z,3.50
2023-03-16T07:09:36.749Z,3.40
2023-03-16T07:10:34.163Z,3.20
2023-03-16T07:11:34.144Z,3.20
2023-03-16T07:12:34.108Z,3.10
2023-03-16T07:13:34.072Z,3.20
2023-03-16T07:14:34.038Z,3.20
2023-03-16T07:15:34.015Z,3.00
2023-03-16T07:16:34.019Z,3.40
2023-03-16T07:17:33.981Z,3.40
2023-03-16T07:18:33.921Z,3.70
2023-03-16T07:19:33.904Z,3.50
2023-03-16T07:20:33.893Z,3.50
2023-03-16T07:21:33.829Z,3.20
2023-03-16T07:22:33.803Z,3.30
2023-03-16T07:23:33.771Z,3.70
2023-03-16T07:24:33.740Z,3.20
2023-03-16T07:25:33.712Z,3.20
2023-03-16T07:26:33.684Z,3.30
2023-03-16T07:27:33.657Z,3.50
2023-03-16T07:28:33.895Z,3.70
2023-03-16T07:29:33.593Z,3.70
2023-03-16T07:30:33.560Z,3.50
2023-03-16T07:31:33.589Z,3.60
2023-03-16T07:32:33.537Z,3.50
2023-03-16T07:33:33.489Z,3.50
2023-03-16T07:34:33.445Z,3.50
2023-03-16T07:35:33.411Z,3.70
2023-03-16T07:36:33.380Z,3.60
2023-03-16T07:37:33.352Z,3.70
2023-03-16T07:38:33.327Z,3.60
2023-03-16T07:39:33.293Z,3.70
2023-03-16T07:40:33.259Z,3.30
2023-03-16T07:41:33.232Z,3.80
2023-03-16T07:42:33.203Z,3.70
2023-03-16T07:43:33.178Z,3.50
2023-03-16T07:44:33.142Z,3.70
2023-03-16T07:45:33.114Z,3.30
2023-03-16T07:46:33.135Z,3.80
2023-03-16T07:47:33.053Z,3.80
2023-03-16T07:48:33.023Z,4.00
2023-03-16T07:49:33.021Z,4.10
2023-03-16T07:50:32.967Z,4.60
2023-03-16T07:51:32.933Z,4.10
2023-03-16T07:52:32.898Z,3.90
2023-03-16T07:53:32.875Z,3.70
2023-03-16T07:54:32.848Z,4.40
2023-03-16T07:55:32.830Z,4.30
2023-03-16T07:56:47.416Z,4.20
2023-03-16T07:57:32.760Z,4.40
2023-03-16T07:58:32.721Z,4.70
2023-03-16T07:59:32.708Z,4.50
2023-03-16T08:00:32.721Z,4.00
2023-03-16T08:01:32.636Z,4.20
2023-03-16T08:02:32.681Z,4.30
2023-03-16T08:03:32.624Z,3.80
2023-03-16T08:04:32.576Z,4.70
2023-03-16T08:05:32.554Z,4.10
2023-03-16T08:06:32.486Z,5.10
2023-03-16T08:07:32.466Z,4.60
2023-03-16T08:08:32.425Z,4.40
2023-03-16T08:09:32.401Z,5.50
2023-03-16T08:10:32.692Z,4.60
2023-03-16T08:11:32.370Z,4.00
2023-03-16T08:12:32.392Z,4.40
2023-03-16T08:13:32.285Z,4.30
2023-03-16T08:14:32.253Z,4.40
2023-03-16T08:15:32.282Z,4.60
2023-03-16T08:16:32.304Z,4.70
2023-03-16T08:17:32.191Z,4.80
2023-03-16T08:18:32.165Z,4.50
2023-03-16T08:19:32.103Z,4.50
2023-03-16T08:20:32.467Z,4.30
2023-03-16T08:21:32.081Z,4.70
2023-03-16T08:22:32.027Z,4.40
2023-03-16T08:23:31.988Z,4.40
2023-03-16T08:24:31.956Z,4.50
2023-03-16T08:25:31.927Z,4.50
2023-03-16T08:26:31.903Z,4.80
2023-03-16T08:27:31.879Z,4.30
2023-03-16T08:28:31.908Z,4.60
2023-03-16T08:29:31.813Z,4.30
2023-03-16T08:30:32.154Z,4.50
2023-03-16T08:31:31.880Z,4.30
2023-03-16T08:32:31.768Z,4.50
2023-03-16T08:33:31.716Z,4.50
2023-03-16T08:34:31.670Z,4.40
2023-03-16T08:35:31.668Z,4.30
2023-03-16T08:36:31.612Z,4.30
2023-03-16T08:37:31.595Z,4.40
2023-03-16T08:38:31.563Z,4.50
2023-03-16T08:39:31.525Z,4.30
2023-03-16T08:40:32.069Z,4.40
2023-03-16T08:41:31.466Z,4.50
2023-03-16T08:42:31.429Z,4.80
2023-03-16T08:43:31.402Z,4.50
2023-03-16T08:44:31.372Z,4.30
2023-03-16T08:45:31.341Z,4.70
2023-03-16T08:46:31.415Z,4.70
2023-03-16T08:47:31.298Z,4.10
2023-03-16T08:48:31.260Z,4.50
2023-03-16T08:49:31.226Z,5.20
2023-03-16T08:50:31.544Z,4.10
2023-03-16T08:51:31.221Z,4.40
2023-03-16T08:52:31.136Z,4.30
2023-03-16T08:53:31.130Z,4.30
2023-03-16T08:54:31.090Z,4.40
2023-03-16T08:55:31.049Z,4.40
2023-03-16T08:56:31.040Z,4.10
2023-03-16T08:57:31.024Z,4.70
2023-03-16T08:58:31.019Z,4.70
2023-03-16T08:59:30.929Z,4.50
2023-03-16T09:00:31.344Z,4.40
2023-03-16T09:01:30.904Z,4.50
2023-03-16T09:02:30.840Z,4.40
2023-03-16T09:03:30.842Z,4.30
2023-03-16T09:04:30.848Z,3.90
2023-03-16T09:05:30.771Z,4.20
2023-03-16T09:06:30.733Z,3.70
2023-03-16T09:07:30.711Z,4.00
2023-03-16T09:08:30.670Z,4.10
2023-03-16T09:09:30.669Z,3.90
2023-03-16T09:10:30.983Z,4.00
2023-03-16T09:11:30.592Z,3.80
2023-03-16T09:12:30.563Z,4.00
2023-03-16T09:13:30.533Z,3.80
2023-03-16T09:14:30.499Z,3.70
2023-03-16T09:15:30.472Z,4.80
2023-03-16T09:16:30.505Z,6.00
2023-03-16T09:17:30.413Z,5.50
2023-03-16T09:18:30.381Z,4.30
2023-03-16T09:19:37.686Z,5.20
2023-03-16T09:20:33.096Z,4.50
2023-03-16T09:21:30.295Z,3.50
2023-03-16T09:22:30.267Z,4.20
2023-03-16T09:23:30.242Z,4.90
2023-03-16T09:24:30.220Z,4.00
2023-03-16T09:25:30.556Z,3.80
2023-03-16T09:26:30.253Z,4.50
2023-03-16T09:27:30.131Z,4.40
2023-03-16T09:28:30.109Z,4.10
2023-03-16T09:29:30.067Z,4.40
2023-03-16T09:30:30.312Z,4.00
2023-03-16T09:31:30.053Z,3.90
2023-03-16T09:32:30.006Z,3.70
2023-03-16T09:33:29.957Z,3.70
2023-03-16T09:34:30.507Z,3.90
2023-03-16T09:35:30.124Z,3.70
2023-03-16T09:36:29.865Z,3.60
2023-03-16T09:37:39.963Z,3.40
2023-03-16T09:38:29.812Z,4.40
2023-03-16T09:39:29.781Z,4.80
2023-03-16T09:40:29.782Z,4.10
2023-03-16T09:41:29.743Z,3.60
2023-03-16T09:42:29.698Z,3.60
2023-03-16T09:43:29.674Z,3.70
2023-03-16T09:44:29.791Z,3.70
2023-03-16T09:45:30.038Z,4.20
2023-03-16T09:46:29.605Z,3.80
2023-03-16T09:47:29.590Z,3.80
2023-03-16T09:48:29.525Z,3.60
2023-03-16T09:49:29.500Z,3.70
2023-03-16T09:50:35.248Z,3.80
2023-03-16T09:51:29.438Z,4.00
2023-03-16T09:52:29.412Z,3.60
2023-03-16T09:53:29.437Z,3.90
2023-03-16T09:54:29.494Z,3.50
2023-03-16T09:55:29.599Z,3.40
2023-03-16T09:56:29.301Z,3.70
2023-03-16T09:57:29.290Z,3.50
2023-03-16T09:58:29.245Z,3.50
2023-03-16T09:59:29.210Z,3.60
2023-03-16T10:00:29.391Z,4.10
2023-03-16T10:01:29.212Z,3.60
2023-03-16T10:02:29.128Z,3.30
2023-03-16T10:03:29.100Z,3.10
2023-03-16T10:04:29.106Z,3.80
2023-03-16T10:05:29.040Z,4.10
2023-03-16T10:06:29.014Z,3.20
2023-03-16T10:07:28.986Z,3.30
2023-03-16T10:08:28.957Z,3.60
2023-03-16T10:09:28.931Z,3.20
2023-03-16T10:10:29.207Z,3.50
2023-03-16T10:11:28.870Z,3.00
2023-03-16T10:12:28.843Z,3.00
2023-03-16T10:13:28.832Z,3.30
2023-03-16T10:14:28.908Z,3.50
2023-03-16T10:15:28.757Z,3.80
2023-03-16T10:16:28.746Z,4.00
2023-03-16T10:17:28.721Z,3.80
2023-03-16T10:18:28.672Z,3.70
2023-03-16T10:19:28.656Z,3.50
2023-03-16T10:20:28.904Z,3.70
2023-03-16T10:21:28.585Z,3.20
2023-03-16T10:22:28.559Z,3.90
2023-03-16T10:23:28.528Z,3.50
2023-03-16T10:24:28.605Z,3.50
2023-03-16T10:25:28.485Z,3.40
2023-03-16T10:26:28.444Z,3.40
2023-03-16T10:27:28.419Z,3.20
2023-03-16T10:28:28.396Z,3.40
2023-03-16T10:29:28.411Z,3.40
2023-03-16T10:30:28.754Z,3.00
2023-03-16T10:31:28.437Z,3.40
2023-03-16T10:32:28.883Z,3.50
2023-03-16T10:33:28.243Z,3.20
2023-03-16T10:34:28.220Z,3.70
2023-03-16T10:35:28.553Z,3.10
2023-03-16T10:36:28.185Z,3.10
2023-03-16T10:37:28.131Z,3.50
2023-03-16T10:38:28.101Z,3.30
2023-03-16T10:39:29.200Z,3.40
2023-03-16T10:40:28.409Z,3.70
2023-03-16T10:41:28.015Z,3.50
2023-03-16T10:42:27.987Z,3.40
2023-03-16T10:43:27.972Z,3.30
2023-03-16T10:44:27.966Z,3.60
2023-03-16T10:45:28.136Z,3.30
2023-03-16T10:46:28.084Z,3.40
2023-03-16T10:47:27.848Z,3.60
2023-03-16T10:48:27.826Z,4.30
2023-03-16T10:49:27.798Z,3.70
2023-03-16T10:50:28.203Z,3.80
2023-03-16T10:51:27.736Z,3.40
2023-03-16T10:52:27.710Z,3.40
2023-03-16T10:53:27.749Z,3.50
2023-03-16T10:54:27.781Z,3.00
2023-03-16T10:55:28.035Z,3.30
2023-03-16T10:56:27.602Z,3.50
2023-03-16T10:57:27.572Z,3.50
2023-03-16T10:58:29.642Z,3.60
2023-03-16T10:59:27.518Z,3.30
2023-03-16T11:00:27.490Z,3.40
2023-03-16T11:01:27.527Z,3.00
2023-03-16T11:02:27.429Z,3.90
2023-03-16T11:03:27.403Z,3.60
2023-03-16T11:04:27.481Z,3.30
2023-03-16T11:05:27.693Z,3.50
2023-03-16T11:06:27.330Z,3.70
2023-03-16T11:07:27.295Z,3.50
2023-03-16T11:08:27.288Z,3.10
2023-03-16T11:09:27.234Z,3.10
2023-03-16T11:10:27.207Z,3.50
2023-03-16T11:11:27.179Z,3.40
2023-03-16T11:12:27.282Z,3.30
2023-03-16T11:13:27.123Z,3.50
2023-03-16T11:14:27.100Z,3.10
2023-03-16T11:15:27.102Z,3.30
2023-03-16T11:16:27.117Z,3.10
2023-03-16T11:17:27.036Z,3.30
2023-03-16T11:18:26.987Z,3.00
2023-03-16T11:19:26.961Z,3.20
2023-03-16T11:20:26.932Z,2.90
2023-03-16T11:21:26.904Z,2.90
2023-03-16T11:22:26.875Z,3.20
2023-03-16T11:23:26.868Z,3.20
2023-03-16T11:24:26.817Z,3.40
2023-03-16T11:25:27.057Z,3.10
2023-03-16T11:26:26.764Z,3.60
2023-03-16T11:27:26.738Z,3.30
2023-03-16T11:28:26.706Z,2.80
2023-03-16T11:29:26.683Z,3.30
2023-03-16T11:30:26.660Z,3.50
2023-03-16T11:31:26.672Z,2.90
2023-03-16T11:32:26.654Z,3.10
2023-03-16T11:33:26.588Z,3.10
2023-03-16T11:34:26.540Z,3.30
2023-03-16T11:35:26.976Z,3.40
2023-03-16T11:36:26.505Z,2.90
2023-03-16T11:37:26.452Z,3.20
2023-03-16T11:38:26.428Z,3.20
2023-03-16T11:39:26.401Z,2.80
2023-03-16T11:40:26.373Z,3.10
2023-03-16T11:41:26.342Z,3.40
2023-03-16T11:42:26.318Z,3.30
2023-03-16T11:43:26.289Z,2.90
2023-03-16T11:44:26.264Z,3.50
2023-03-16T11:45:26.261Z,2.70
2023-03-16T11:46:26.291Z,3.10
2023-03-16T11:47:26.179Z,2.60
2023-03-16T11:48:26.153Z,3.00
2023-03-16T11:49:26.220Z,2.70
2023-03-16T11:50:26.095Z,3.10
2023-03-16T11:51:26.077Z,2.70
2023-03-16T11:52:26.034Z,2.80
2023-03-16T11:53:26.004Z,3.10
2023-03-16T11:54:25.976Z,3.30
2023-03-16T11:55:25.970Z,3.20
2023-03-16T11:56:25.920Z,3.00
2023-03-16T11:57:25.893Z,3.20
2023-03-16T11:58:25.866Z,3.00
2023-03-16T11:59:25.832Z,2.90
2023-03-16T12:00:25.810Z,2.90
2023-03-16T12:01:25.881Z,2.60
2023-03-16T12:02:25.909Z,2.80
2023-03-16T12:03:25.891Z,2.70
2023-03-16T12:04:25.750Z,3.10
2023-03-16T12:05:25.705Z,3.70
2023-03-16T12:06:25.649Z,2.90
2023-03-16T12:07:25.712Z,2.90
2023-03-16T12:08:25.587Z,3.70
2023-03-16T12:09:25.571Z,3.30
2023-03-16T12:10:25.523Z,2.60
2023-03-16T12:11:25.502Z,3.10
2023-03-16T12:12:25.473Z,3.10
2023-03-16T12:13:25.455Z,2.70
2023-03-16T12:14:25.412Z,2.60
2023-03-16T12:15:25.383Z,3.00
2023-03-16T12:16:27.454Z,2.80
2023-03-16T12:17:25.328Z,2.90
2023-03-16T12:18:25.308Z,3.00
2023-03-16T12:19:25.279Z,2.60
2023-03-16T12:20:25.272Z,2.70
2023-03-16T12:21:25.285Z,2.70
2023-03-16T12:22:25.192Z,2.80
2023-03-16T12:23:27.181Z,2.30
2023-03-16T12:24:25.131Z,2.40
2023-03-16T12:25:25.102Z,2.40
2023-03-16T12:26:25.078Z,2.70
2023-03-16T12:27:25.049Z,2.80
2023-03-16T12:28:25.045Z,2.60
2023-03-16T12:29:25.072Z,2.70
2023-03-16T12:30:24.967Z,3.10
2023-03-16T12:31:24.965Z,2.90
2023-03-16T12:32:24.940Z,2.60
2023-03-16T12:33:24.892Z,3.10
2023-03-16T12:34:24.857Z,2.30
2023-03-16T12:35:24.866Z,2.90
2023-03-16T12:36:24.799Z,2.50
2023-03-16T12:37:24.804Z,2.70
2023-03-16T12:38:24.750Z,2.90
2023-03-16T12:39:24.720Z,3.10
2023-03-16T12:40:24.690Z,3.20
2023-03-16T12:41:24.663Z,2.90
2023-03-16T12:42:24.641Z,3.30
2023-03-16T12:43:24.610Z,2.90
2023-03-16T12:44:24.639Z,3.20
2023-03-16T12:45:24.554Z,2.90
2023-03-16T12:46:24.667Z,3.20
2023-03-16T12:47:24.499Z,2.70
2023-03-16T12:48:24.473Z,3.00
2023-03-16T12:49:24.455Z,2.90
2023-03-16T12:50:24.431Z,2.90
2023-03-16T12:51:24.388Z,3.00
2023-03-16T12:52:24.363Z,2.80
2023-03-16T12:53:24.355Z,2.50
2023-03-16T12:54:24.318Z,2.90
2023-03-16T12:55:24.281Z,2.60
2023-03-16T12:56:24.259Z,2.80
2023-03-16T12:57:24.244Z,3.40
2023-03-16T12:58:24.210Z,3.30
2023-03-16T12:59:24.169Z,2.60
2023-03-16T13:00:24.146Z,2.90
2023-03-16T13:01:24.151Z,2.50
2023-03-16T13:02:24.098Z,2.90
2023-03-16T13:03:24.065Z,3.10
2023-03-16T13:04:24.153Z,3.10
2023-03-16T13:05:24.014Z,3.00
2023-03-16T13:06:24.002Z,2.50
2023-03-16T13:07:23.988Z,2.70
2023-03-16T13:08:23.946Z,2.90
2023-03-16T13:09:23.933Z,2.70
2023-03-16T13:10:23.880Z,2.80
2023-03-16T13:11:23.851Z,2.80
2023-03-16T13:12:23.826Z,2.70
2023-03-16T13:13:23.797Z,2.50
2023-03-16T13:14:23.773Z,2.50
2023-03-16T13:15:23.744Z,2.70
2023-03-16T13:16:23.785Z,2.90
2023-03-16T13:17:23.834Z,2.80
2023-03-16T13:18:23.668Z,2.60